sensor_id;sensor_type;location;lat;lon;timestamp;temperature;humidity
20504;DHT22;10410;51.046;6.980;2023-04-24T00:06:14;11.70;99.90
20504;DHT22;10410;51.046;6.980;2023-04-24T00:13:16;11.70;99.90
20504;DHT22;10410;51.046;6.980;2023-04-24T00:20:17;11.70;99.90
20504;DHT22;10410;51.046;6.980;2023-04-24T00:27:19;11.70;99.90
20504;DHT22;10410;51.046;6.980;2023-04-24T00:34:19;11.70;99.90
20504;DHT22;10410;51.046;6.980;2023-04-24T00:41:20;11.70;99.90
20504;DHT22;10410;51.046;6.980;2023-04-24T00:48:23;11.70;99.90
20504;DHT22;10410;51.046;6.980;2023-04-24T00:55:24;11.70;99.90
20504;DHT22;10410;51.046;6.980;2023-04-24T01:02:26;11.70;99.90
20504;DHT22;10410;51.046;6.980;2023-04-24T01:09:27;11.60;99.90
20504;DHT22;10410;51.046;6.980;2023-04-24T01:16:28;11.60;99.90
20504;DHT22;10410;51.046;6.980;2023-04-24T01:23:28;11.50;99.90
20504;DHT22;10410;51.046;6.980;2023-04-24T01:30:29;11.50;99.90
20504;DHT22;10410;51.046;6.980;2023-04-24T01:37:30;11.40;99.90
20504;DHT22;10410;51.046;6.980;2023-04-24T01:44:33;11.30;99.90
20504;DHT22;10410;51.046;6.980;2023-04-24T01:51:33;11.20;99.90
20504;DHT22;10410;51.046;6.980;2023-04-24T01:58:34;11.00;99.90
20504;DHT22;10410;51.046;6.980;2023-04-24T02:05:35;10.80;99.90
20504;DHT22;10410;51.046;6.980;2023-04-24T02:12:36;10.60;99.90
20504;DHT22;10410;51.046;6.980;2023-04-24T02:19:36;10.40;99.90
20504;DHT22;10410;51.046;6.980;2023-04-24T02:26:36;10.20;99.90
20504;DHT22;10410;51.046;6.980;2023-04-24T02:33:37;10.10;99.90
20504;DHT22;10410;51.046;6.980;2023-04-24T02:40:37;9.90;99.90
20504;DHT22;10410;51.046;6.980;2023-04-24T02:47:38;9.80;99.90
20504;DHT22;10410;51.046;6.980;2023-04-24T02:54:38;9.60;99.90
20504;DHT22;10410;51.046;6.980;2023-04-24T03:01:38;9.60;99.90
20504;DHT22;10410;51.046;6.980;2023-04-24T03:08:39;9.60;99.90
20504;DHT22;10410;51.046;6.980;2023-04-24T03:15:40;9.60;99.90
20504;DHT22;10410;51.046;6.980;2023-04-24T03:22:40;9.70;99.90
20504;DHT22;10410;51.046;6.980;2023-04-24T03:29:41;9.70;99.90
20504;DHT22;10410;51.046;6.980;2023-04-24T03:36:43;9.70;99.90
20504;DHT22;10410;51.046;6.980;2023-04-24T03:43:44;9.80;99.90
20504;DHT22;10410;51.046;6.980;2023-04-24T03:50:45;9.80;99.90
20504;DHT22;10410;51.046;6.980;2023-04-24T03:57:46;9.70;99.90
20504;DHT22;10410;51.046;6.980;2023-04-24T04:04:54;9.70;99.90
20504;DHT22;10410;51.046;6.980;2023-04-24T04:11:54;9.70;99.90
20504;DHT22;10410;51.046;6.980;2023-04-24T04:18:55;9.70;99.90
20504;DHT22;10410;51.046;6.980;2023-04-24T04:25:56;9.70;99.90
20504;DHT22;10410;51.046;6.980;2023-04-24T04:33:03;9.70;99.90
20504;DHT22;10410;51.046;6.980;2023-04-24T04:40:05;9.70;99.90
20504;DHT22;10410;51.046;6.980;2023-04-24T04:47:21;9.70;99.90
20504;DHT22;10410;51.046;6.980;2023-04-24T04:54:24;9.70;99.90
20504;DHT22;10410;51.046;6.980;2023-04-24T05:01:25;9.80;99.90
20504;DHT22;10410;51.046;6.980;2023-04-24T05:08:28;9.80;99.90
20504;DHT22;10410;51.046;6.980;2023-04-24T05:15:28;9.80;99.90
20504;DHT22;10410;51.046;6.980;2023-04-24T05:22:30;9.80;99.90
20504;DHT22;10410;51.046;6.980;2023-04-24T05:29:31;9.80;99.90
20504;DHT22;10410;51.046;6.980;2023-04-24T05:36:32;9.80;99.90
20504;DHT22;10410;51.046;6.980;2023-04-24T05:43:32;9.80;99.90
20504;DHT22;10410;51.046;6.980;2023-04-24T05:50:32;9.70;99.90
20504;DHT22;10410;51.046;6.980;2023-04-24T05:57:36;9.70;99.90
20504;DHT22;10410;51.046;6.980;2023-04-24T06:04:37;9.60;99.90
20504;DHT22;10410;51.046;6.980;2023-04-24T06:11:38;9.50;99.90
20504;DHT22;10410;51.046;6.980;2023-04-24T06:18:43;9.50;99.90
20504;DHT22;10410;51.046;6.980;2023-04-24T06:25:43;9.60;99.90
20504;DHT22;10410;51.046;6.980;2023-04-24T06:32:44;9.50;99.90
20504;DHT22;10410;51.046;6.980;2023-04-24T06:39:45;9.40;99.90
20504;DHT22;10410;51.046;6.980;2023-04-24T06:46:46;9.40;99.90
20504;DHT22;10410;51.046;6.980;2023-04-24T06:53:46;9.20;99.90
20504;DHT22;10410;51.046;6.980;2023-04-24T07:00:48;9.00;99.90
20504;DHT22;10410;51.046;6.980;2023-04-24T07:07:49;8.90;99.90
20504;DHT22;10410;51.046;6.980;2023-04-24T07:14:50;8.80;99.90
20504;DHT22;10410;51.046;6.980;2023-04-24T07:21:50;8.60;99.90
20504;DHT22;10410;51.046;6.980;2023-04-24T07:28:51;8.50;99.90
20504;DHT22;10410;51.046;6.980;2023-04-24T07:35:52;8.40;99.90
20504;DHT22;10410;51.046;6.980;2023-04-24T07:42:53;8.40;99.90
20504;DHT22;10410;51.046;6.980;2023-04-24T07:49:53;8.30;99.90
20504;DHT22;10410;51.046;6.980;2023-04-24T07:56:54;8.20;99.90
20504;DHT22;10410;51.046;6.980;2023-04-24T08:03:54;8.10;99.90
20504;DHT22;10410;51.046;6.980;2023-04-24T08:10:56;8.00;99.90
20504;DHT22;10410;51.046;6.980;2023-04-24T08:17:57;7.80;99.90
20504;DHT22;10410;51.046;6.980;2023-04-24T08:24:59;7.60;99.90
20504;DHT22;10410;51.046;6.980;2023-04-24T08:32:00;7.40;99.90
20504;DHT22;10410;51.046;6.980;2023-04-24T08:39:00;7.30;99.90
20504;DHT22;10410;51.046;6.980;2023-04-24T08:46:01;7.30;99.90
20504;DHT22;10410;51.046;6.980;2023-04-24T08:53:06;7.20;99.90
20504;DHT22;10410;51.046;6.980;2023-04-24T09:00:07;7.30;99.90
20504;DHT22;10410;51.046;6.980;2023-04-24T09:07:12;7.30;99.90
20504;DHT22;10410;51.046;6.980;2023-04-24T09:14:14;7.20;99.90
20504;DHT22;10410;51.046;6.980;2023-04-24T09:21:14;7.20;99.90
20504;DHT22;10410;51.046;6.980;2023-04-24T09:28:16;7.30;99.90
20504;DHT22;10410;51.046;6.980;2023-04-24T09:35:16;7.30;99.90
20504;DHT22;10410;51.046;6.980;2023-04-24T09:42:16;7.40;99.90
20504;DHT22;10410;51.046;6.980;2023-04-24T09:49:28;7.40;99.90
20504;DHT22;10410;51.046;6.980;2023-04-24T09:56:32;7.50;99.90
20504;DHT22;10410;51.046;6.980;2023-04-24T10:03:33;7.50;99.90
20504;DHT22;10410;51.046;6.980;2023-04-24T10:10:39;7.70;99.90
20504;DHT22;10410;51.046;6.980;2023-04-24T10:17:40;7.80;99.90
20504;DHT22;10410;51.046;6.980;2023-04-24T10:24:41;8.00;99.90
20504;DHT22;10410;51.046;6.980;2023-04-24T10:31:42;8.20;99.90
20504;DHT22;10410;51.046;6.980;2023-04-24T10:38:46;8.40;99.90
20504;DHT22;10410;51.046;6.980;2023-04-24T10:46:05;8.60;99.90
20504;DHT22;10410;51.046;6.980;2023-04-24T10:53:11;8.70;99.90
20504;DHT22;10410;51.046;6.980;2023-04-24T11:00:19;8.70;99.90
20504;DHT22;10410;51.046;6.980;2023-04-24T11:07:20;8.70;99.90
20504;DHT22;10410;51.046;6.980;2023-04-24T11:14:21;8.70;99.90
20504;DHT22;10410;51.046;6.980;2023-04-24T11:21:22;8.70;99.90
20504;DHT22;10410;51.046;6.980;2023-04-24T11:28:24;8.60;99.90
20504;DHT22;10410;51.046;6.980;2023-04-24T11:35:24;8.70;99.90
20504;DHT22;10410;51.046;6.980;2023-04-24T11:42:25;9.00;99.90
20504;DHT22;10410;51.046;6.980;2023-04-24T11:49:26;9.40;99.90
20504;DHT22;10410;51.046;6.980;2023-04-24T11:56:26;9.60;99.90
20504;DHT22;10410;51.046;6.980;2023-04-24T12:03:27;9.90;99.90
20504;DHT22;10410;51.046;6.980;2023-04-24T12:10:29;10.10;99.90
20504;DHT22;10410;51.046;6.980;2023-04-24T12:17:30;10.10;99.90
20504;DHT22;10410;51.046;6.980;2023-04-24T12:24:31;10.00;99.90
20504;DHT22;10410;51.046;6.980;2023-04-24T12:31:32;9.80;99.90
20504;DHT22;10410;51.046;6.980;2023-04-24T12:38:32;9.70;99.90
20504;DHT22;10410;51.046;6.980;2023-04-24T12:45:40;9.80;99.90
20504;DHT22;10410;51.046;6.980;2023-04-24T12:52:40;10.00;99.90
20504;DHT22;10410;51.046;6.980;2023-04-24T12:59:40;10.50;99.90
20504;DHT22;10410;51.046;6.980;2023-04-24T13:06:40;10.80;99.90
20504;DHT22;10410;51.046;6.980;2023-04-24T13:13:41;11.10;99.90
20504;DHT22;10410;51.046;6.980;2023-04-24T13:20:41;11.40;99.90
20504;DHT22;10410;51.046;6.980;2023-04-24T13:27:42;11.60;99.90
20504;DHT22;10410;51.046;6.980;2023-04-24T13:34:42;11.70;99.90
20504;DHT22;10410;51.046;6.980;2023-04-24T13:41:43;11.60;99.90
20504;DHT22;10410;51.046;6.980;2023-04-24T13:48:43;11.90;99.90
20504;DHT22;10410;51.046;6.980;2023-04-24T13:55:44;11.70;99.90
20504;DHT22;10410;51.046;6.980;2023-04-24T14:02:44;11.30;99.90
20504;DHT22;10410;51.046;6.980;2023-04-24T14:09:45;11.10;99.90
20504;DHT22;10410;51.046;6.980;2023-04-24T14:16:46;11.00;99.90
20504;DHT22;10410;51.046;6.980;2023-04-24T14:23:46;11.60;99.90
20504;DHT22;10410;51.046;6.980;2023-04-24T14:30:50;12.00;99.90
20504;DHT22;10410;51.046;6.980;2023-04-24T14:37:50;12.40;99.90
20504;DHT22;10410;51.046;6.980;2023-04-24T14:44:51;12.50;99.90
20504;DHT22;10410;51.046;6.980;2023-04-24T14:51:51;12.40;99.90
20504;DHT22;10410;51.046;6.980;2023-04-24T14:58:51;12.30;99.90
20504;DHT22;10410;51.046;6.980;2023-04-24T15:05:52;12.00;99.90
20504;DHT22;10410;51.046;6.980;2023-04-24T15:12:52;12.40;99.90
20504;DHT22;10410;51.046;6.980;2023-04-24T15:19:53;12.50;99.90
20504;DHT22;10410;51.046;6.980;2023-04-24T15:26:54;12.90;99.90
20504;DHT22;10410;51.046;6.980;2023-04-24T15:33:57;13.40;99.90
20504;DHT22;10410;51.046;6.980;2023-04-24T15:40:58;13.80;99.90
20504;DHT22;10410;51.046;6.980;2023-04-24T15:47:58;13.60;99.90
20504;DHT22;10410;51.046;6.980;2023-04-24T15:54:59;13.80;99.90
20504;DHT22;10410;51.046;6.980;2023-04-24T16:01:59;13.90;99.90
20504;DHT22;10410;51.046;6.980;2023-04-24T16:09:00;14.00;99.90
20504;DHT22;10410;51.046;6.980;2023-04-24T16:16:02;13.80;99.90
20504;DHT22;10410;51.046;6.980;2023-04-24T16:23:03;13.50;99.90
20504;DHT22;10410;51.046;6.980;2023-04-24T16:30:04;13.10;99.90
20504;DHT22;10410;51.046;6.980;2023-04-24T16:37:04;12.80;99.90
20504;DHT22;10410;51.046;6.980;2023-04-24T16:44:08;12.60;99.90
20504;DHT22;10410;51.046;6.980;2023-04-24T16:51:09;12.60;99.90
20504;DHT22;10410;51.046;6.980;2023-04-24T16:58:09;12.50;99.90
20504;DHT22;10410;51.046;6.980;2023-04-24T17:05:09;12.30;99.90
20504;DHT22;10410;51.046;6.980;2023-04-24T17:12:10;12.30;99.90
20504;DHT22;10410;51.046;6.980;2023-04-24T17:19:11;12.20;99.90
20504;DHT22;10410;51.046;6.980;2023-04-24T17:26:11;12.20;99.90
20504;DHT22;10410;51.046;6.980;2023-04-24T17:33:11;12.10;99.90
20504;DHT22;10410;51.046;6.980;2023-04-24T17:40:12;12.00;99.90
20504;DHT22;10410;51.046;6.980;2023-04-24T17:47:13;11.70;99.90
20504;DHT22;10410;51.046;6.980;2023-04-24T17:54:13;11.60;99.90
20504;DHT22;10410;51.046;6.980;2023-04-24T18:01:17;11.40;99.90
20504;DHT22;10410;51.046;6.980;2023-04-24T18:08:18;11.20;99.90
20504;DHT22;10410;51.046;6.980;2023-04-24T18:15:19;11.10;99.90
20504;DHT22;10410;51.046;6.980;2023-04-24T18:22:20;10.90;99.90
20504;DHT22;10410;51.046;6.980;2023-04-24T18:29:20;10.80;99.90
20504;DHT22;10410;51.046;6.980;2023-04-24T18:36:20;10.60;99.90
20504;DHT22;10410;51.046;6.980;2023-04-24T18:43:21;10.30;99.90
20504;DHT22;10410;51.046;6.980;2023-04-24T18:50:21;10.10;99.90
20504;DHT22;10410;51.046;6.980;2023-04-24T18:57:22;10.00;99.90
20504;DHT22;10410;51.046;6.980;2023-04-24T19:04:23;9.90;99.90
20504;DHT22;10410;51.046;6.980;2023-04-24T19:11:25;9.70;99.90
20504;DHT22;10410;51.046;6.980;2023-04-24T19:18:26;9.60;99.90
20504;DHT22;10410;51.046;6.980;2023-04-24T19:25:28;9.60;99.90
20504;DHT22;10410;51.046;6.980;2023-04-24T19:32:28;9.40;99.90
20504;DHT22;10410;51.046;6.980;2023-04-24T19:39:29;9.40;99.90
20504;DHT22;10410;51.046;6.980;2023-04-24T19:46:31;9.20;99.90
20504;DHT22;10410;51.046;6.980;2023-04-24T19:53:31;9.10;99.90
20504;DHT22;10410;51.046;6.980;2023-04-24T20:00:32;9.00;99.90
20504;DHT22;10410;51.046;6.980;2023-04-24T20:07:34;9.00;99.90
20504;DHT22;10410;51.046;6.980;2023-04-24T20:14:35;8.90;99.90
20504;DHT22;10410;51.046;6.980;2023-04-24T20:21:36;8.90;99.90
20504;DHT22;10410;51.046;6.980;2023-04-24T20:28:37;8.90;99.90
20504;DHT22;10410;51.046;6.980;2023-04-24T20:35:38;8.80;99.90
20504;DHT22;10410;51.046;6.980;2023-04-24T20:42:39;8.70;99.90
20504;DHT22;10410;51.046;6.980;2023-04-24T20:49:39;8.60;99.90
20504;DHT22;10410;51.046;6.980;2023-04-24T20:56:43;8.50;99.90
20504;DHT22;10410;51.046;6.980;2023-04-24T21:03:44;8.30;99.90
20504;DHT22;10410;51.046;6.980;2023-04-24T21:10:44;8.20;99.90
20504;DHT22;10410;51.046;6.980;2023-04-24T21:17:45;8.10;99.90
20504;DHT22;10410;51.046;6.980;2023-04-24T21:24:45;8.00;99.90
20504;DHT22;10410;51.046;6.980;2023-04-24T21:31:46;7.90;99.90
20504;DHT22;10410;51.046;6.980;2023-04-24T21:38:46;7.90;99.90
20504;DHT22;10410;51.046;6.980;2023-04-24T21:45:47;7.80;99.90
20504;DHT22;10410;51.046;6.980;2023-04-24T21:52:47;7.70;99.90
20504;DHT22;10410;51.046;6.980;2023-04-24T21:59:48;7.60;99.90
20504;DHT22;10410;51.046;6.980;2023-04-24T22:06:48;7.50;99.90
20504;DHT22;10410;51.046;6.980;2023-04-24T22:13:50;7.40;99.90
20504;DHT22;10410;51.046;6.980;2023-04-24T22:20:51;7.40;99.90
20504;DHT22;10410;51.046;6.980;2023-04-24T22:27:51;7.30;99.90
20504;DHT22;10410;51.046;6.980;2023-04-24T22:34:52;7.30;99.90
20504;DHT22;10410;51.046;6.980;2023-04-24T22:41:52;7.20;99.90
20504;DHT22;10410;51.046;6.980;2023-04-24T22:48:52;7.20;99.90
20504;DHT22;10410;51.046;6.980;2023-04-24T22:55:54;7.10;99.90
20504;DHT22;10410;51.046;6.980;2023-04-24T23:02:55;7.10;99.90
20504;DHT22;10410;51.046;6.980;2023-04-24T23:09:55;7.00;99.90
20504;DHT22;10410;51.046;6.980;2023-04-24T23:16:56;7.00;99.90
20504;DHT22;10410;51.046;6.980;2023-04-24T23:23:56;6.90;99.90
20504;DHT22;10410;51.046;6.980;2023-04-24T23:30:57;6.80;99.90
20504;DHT22;10410;51.046;6.980;2023-04-24T23:37:57;6.70;99.90
20504;DHT22;10410;51.046;6.980;2023-04-24T23:44:58;6.50;99.90
20504;DHT22;10410;51.046;6.980;2023-04-24T23:51:58;6.40;99.90
20504;DHT22;10410;51.046;6.980;2023-04-24T23:58:59;6.30;99.90
